Date,TemperatureHighF,TemperatureAvgF,TemperatureLowF,DewpointHighF,DewpointAvgF,DewpointLowF,HumidityHigh,HumidityAvg,HumidityLow,PressureMaxIn,PressureMinIn,WindSpeedMaxMPH,WindSpeedAvgMPH,GustSpeedMaxMPH,PrecipitationSumIn
2013-2-1,2,-9,-18,-5,-17,-27,73,66,60,30.26,30.04,60,60,60,0.00
2013-2-2,8,-1,-12,2,-8,-19,80,72,67,30.17,29.98,60,60,60,0.00
2013-2-3,7,5,1,-1,-4,-8,75,68,56,30.09,30.01,60,60,60,0.00
2013-2-4,21,8,-1,16,-1,-10,83,67,52,30.07,29.66,60,60,60,0.00
2013-2-5,27,13,7,22,5,-1,83,72,61,30.04,29.67,60,60,60,0.00
2013-2-6,29,20,9,21,13,2,78,74,69,30.08,29.87,60,60,60,0.00
2013-2-7,20,15,9,14,9,4,83,78,73,30.26,30.08,60,60,60,0.00
2013-2-8,25,19,11,19,13,6,85,78,66,30.25,30.00,60,60,60,0.00
2013-2-9,32,28,22,28,23,17,92,83,75,30.00,29.87,60,60,60,0.00
2013-2-10,30,28,24,27,25,21,95,89,82,29.87,29.59,60,60,60,0.00
2013-2-11,24,20,15,21,16,10,89,83,78,29.99,29.74,60,60,60,0.00
2013-2-12,30,22,14,24,17,9,82,79,72,29.94,29.79,60,60,60,0.02
2013-2-13,32,25,17,27,20,12,86,83,77,29.81,29.65,60,60,60,0.00
2013-2-14,19,12,5,14,6,-2,85,75,68,30.21,29.81,60,60,60,0.00
2013-2-15,13,6,-1,5,0,-7,78,75,64,30.31,30.18,60,60,60,0.00
2013-2-16,15,9,-2,10,3,-8,80,76,69,30.18,29.96,60,60,60,0.00
2013-2-17,30,23,13,25,17,7,84,79,73,29.96,29.58,60,60,60,0.00
2013-2-18,29,10,-2,26,4,-8,88,78,69,30.11,29.57,60,60,60,0.00
2013-2-19,-2,-8,-14,-7,-15,-22,77,68,62,30.41,30.11,60,60,60,0.00
2013-2-20,6,-6,-17,-5,-15,-25,73,65,56,30.42,30.29,60,60,60,0.00
2013-2-21,20,9,-5,6,-1,-11,75,65,53,30.34,30.13,60,60,60,0.00
2013-2-22,20,15,10,12,7,2,83,71,63,30.12,29.92,60,60,60,0.00
2013-2-23,22,15,8,16,10,3,85,80,69,29.96,29.88,60,60,60,0.00
2013-2-24,22,13,1,15,6,-4,83,74,62,30.04,29.96,60,60,60,0.00
2013-2-25,28,21,13,19,16,8,87,80,64,30.07,29.99,60,60,60,0.01
2013-2-26,24,19,14,21,16,10,87,85,83,30.07,30.00,60,60,60,0.00
2013-2-27,27,18,7,24,13,2,87,83,79,30.14,30.06,60,60,60,0.00
2013-2-28,27,23,19,18,16,13,82,74,64,30.24,30.14,60,60,60,0.00